Horizon Enterprise — KRGB — position and weather

sailwx.info

Track history (hours):
 
Tides and Currents Weather Stations Pressure Air Temp Water Temp Dewpoint Dewpoint Depression Visibility Wind Speed Wind Dir Waves Ship Positions

Horizon Enterprise

Owner: Marine Transport Management, Inc, Jacksonville, FL. More information available from US FCC via Universal Licensing System and Coast Guard Vessel Documentation Center.

Last reported at 2017-Dec-18 00:00 UTC. Time now 2017-Dec-18 03:26 UTC.
Position N 30°06' W 129°18'.

Type: Cargo ship. MMSI: 366758000.

Wind from 020 at 25 knots

Barometer 1019.8 mb
Air temperature 19.4 ° C
Visibility: greater than 10.8 NM
Dewpoint 15.7 ° C

Date/timePositionNaut miles runAvg speedWind from/ knotsBaromVisibWave heightAir tempDewpointWater temp
2017-Dec-18 00:00N 30°06' W 129°18'18020.0 020 / 251019.810.8 19.415.7
2017-Dec-17 15:00N 30°42' W 125°54'6421.5 010 / 301018.010.8 16.110.916.7
2017-Dec-17 12:00N 31°00' W 124°42'22517.3 010 / 401016.410.8 16.712.6
2017-Dec-16 23:00N 32°36' W 120°42'4134.8 350 / 411006.710.8 17.212.1
2017-Dec-16 21:49N 33°02' W 120°05'617.6
2017-Dec-16 21:28N 33°03' W 119°57'817.6
2017-Dec-16 21:00N 33°04' W 119°48'919.0
2017-Dec-16 20:30N 33°06' W 119°36'1019.5
2017-Dec-16 19:58N 33°07' W 119°24'1520.6
2017-Dec-16 19:16N 33°13' W 119°08'521.2
2017-Dec-16 19:00N 33°16' W 119°03'1021.0
2017-Dec-16 18:30N 33°22' W 118°53'3120.6
2017-Dec-16 16:59N 33°38' W 118°20'8 3.4
2017-Dec-16 14:38N 33°46' W 118°17'0 0.0
2017-Dec-16 14:30N 33°46' W 118°17'0 0.0
2017-Dec-16 13:47N 33°46' W 118°17'0 0.0
2017-Dec-16 13:29N 33°46' W 118°17'0 0.0
2017-Dec-16 11:05N 33°46' W 118°17'0 0.0
2017-Dec-16 10:47N 33°46' W 118°17'0 0.0
2017-Dec-16 07:23N 33°46' W 118°17'69 1.9
2017-Dec-14 18:30N 34°06' W 119°36'1021.0
2017-Dec-14 18:00N 34°10' W 119°48'11868.7
2017-Dec-14 18:00N 34°06' W 119°36'2143.0 290 / 21017.3 5.4 15.013.9
2017-Dec-14 17:30N 34°13' W 119°60'1020.8
2017-Dec-14 17:01N 34°16' W 120°12'1120.6
2017-Dec-14 16:29N 34°18' W 120°25'1020.9
2017-Dec-14 16:00N 34°21' W 120°36'2020.3
2017-Dec-14 15:00N 34°29' W 120°59'1121.2
2017-Dec-14 14:31N 34°37' W 121°07'1121.3
2017-Dec-14 14:01N 34°46' W 121°14'1121.4
2017-Dec-14 13:30N 34°56' W 121°20'1020.3
2017-Dec-14 13:00N 35°04' W 121°26'1019.5
2017-Dec-14 12:31N 35°12' W 121°33'1019.6
2017-Dec-14 12:01N 35°21' W 121°39'1120.9
2017-Dec-14 11:30N 35°31' W 121°44'1020.6
2017-Dec-14 11:01N 35°39' W 121°51'1121.1
2017-Dec-14 10:30N 35°48' W 121°58'1121.2
2017-Dec-14 10:00N 35°58' W 122°04'1121.3
2017-Dec-14 09:31N 36°07' W 122°11'1020.9
2017-Dec-14 09:01N 36°16' W 122°17'1020.9
2017-Dec-14 08:31N 36°25' W 122°22'1121.1
2017-Dec-14 08:01N 36°35' W 122°27'1121.4
2017-Dec-14 07:30N 36°45' W 122°32'1121.2
2017-Dec-14 07:01N 36°55' W 122°37'1121.2
2017-Dec-14 06:30N 37°05' W 122°41'1121.9
2017-Dec-14 06:01N 37°16' W 122°44'1121.9
2017-Dec-14 05:30N 37°27' W 122°44'1121.3
2017-Dec-14 05:00N 37°37' W 122°44'917.5
2017-Dec-14 04:31N 37°46' W 122°41'815.6
2017-Dec-14 04:00N 37°48' W 122°31'611.7
2017-Dec-14 03:30N 37°50' W 122°24'4 8.6
2017-Dec-14 03:01N 37°48' W 122°19'0 0.1
2017-Dec-14 02:30N 37°48' W 122°19'0 0.0
2017-Dec-14 02:01N 37°48' W 122°19'0 0.0
2017-Dec-14 01:30N 37°48' W 122°19'0 0.0
2017-Dec-14 00:58N 37°48' W 122°19'0 0.0
2017-Dec-14 00:28N 37°48' W 122°19'0 0.0
2017-Dec-13 23:58N 37°48' W 122°19'0 0.0
2017-Dec-13 23:28N 37°48' W 122°19'0 0.0
2017-Dec-13 22:58N 37°48' W 122°19'0 0.0
2017-Dec-13 22:28N 37°48' W 122°19'0 0.0
2017-Dec-13 21:58N 37°48' W 122°19'0 0.0
2017-Dec-13 21:28N 37°48' W 122°19'0 0.0
2017-Dec-13 20:58N 37°48' W 122°19'0 0.0
2017-Dec-13 20:28N 37°48' W 122°19'0 0.0
2017-Dec-13 19:58N 37°48' W 122°19'0 0.0
2017-Dec-13 19:28N 37°48' W 122°19'0 0.0
2017-Dec-13 18:58N 37°48' W 122°19'0 0.0
2017-Dec-13 18:28N 37°48' W 122°19'0 0.0
2017-Dec-13 17:58N 37°48' W 122°19'0 0.0
2017-Dec-13 17:28N 37°48' W 122°19'0 0.0
2017-Dec-13 16:58N 37°48' W 122°19'0 0.0
2017-Dec-13 16:28N 37°48' W 122°19'0 0.0
2017-Dec-13 15:58N 37°48' W 122°19'0 0.0
2017-Dec-13 15:28N 37°48' W 122°19'0 0.0
2017-Dec-13 14:58N 37°48' W 122°19'0 0.0
2017-Dec-13 14:30N 37°48' W 122°19'1 2.5
2017-Dec-13 14:00N 37°48' W 122°18'1 1.1
2017-Dec-13 13:30N 37°48' W 122°18'1 2.8
2017-Dec-13 13:00N 37°48' W 122°20'4 7.2
2017-Dec-13 12:30N 37°49' W 122°24'510.5
2017-Dec-13 12:00N 37°48' W 122°31'917.4
2017-Dec-13 11:30N 37°44' W 122°41'715.0
2017-Dec-13 11:01N 37°40' W 122°48'816.5
2017-Dec-13 10:30N 37°35' W 122°57'816.3
2017-Dec-13 10:01N 37°31' W 123°06'816.7
2017-Dec-13 09:30N 37°27' W 123°15'816.7
2017-Dec-13 09:01N 37°23' W 123°24'816.7
2017-Dec-13 08:31N 37°19' W 123°33'816.3
2017-Dec-13 08:01N 37°15' W 123°42'816.5
2017-Dec-13 07:30N 37°11' W 123°52'816.3
2017-Dec-13 07:00N 37°07' W 124°01'816.4
2017-Dec-13 06:31N 37°03' W 124°10'816.3
2017-Dec-13 06:01N 36°60' W 124°18'816.4
2017-Dec-13 05:31N 36°56' W 124°27'816.4
2017-Dec-13 05:01N 36°52' W 124°36'816.3
2017-Dec-13 04:30N 36°48' W 124°45'816.5
2017-Dec-13 04:00N 36°44' W 124°55'816.5
2017-Dec-13 03:30N 36°40' W 125°04'816.4
2017-Dec-13 03:01N 36°36' W 125°13'816.4
2017-Dec-13 02:30N 36°32' W 125°22'816.4
2017-Dec-13 02:00N 36°28' W 125°31'816.3
2017-Dec-13 01:30N 36°24' W 125°39'816.4
2017-Dec-13 01:00N 36°20' W 125°48'816.4
2017-Dec-13 00:30N 36°16' W 125°57'816.1
2017-Dec-13 00:00N 36°13' W 126°06'816.3
2017-Dec-12 23:30N 36°09' W 126°15'816.8
2017-Dec-12 23:00N 36°05' W 126°24'161071.3
2017-Dec-12 23:00N 36°12' W 126°06'2550.9 030 / 161024.110.8 18.913.1
2017-Dec-12 22:30N 36°01' W 126°33'917.1
2017-Dec-12 22:00N 35°57' W 126°42'917.4
2017-Dec-12 21:30N 35°52' W 126°52'918.3
2017-Dec-12 21:00N 35°48' W 127°02'918.3
2017-Dec-12 20:30N 35°44' W 127°12'917.9
2017-Dec-12 20:00N 35°39' W 127°21'918.2
2017-Dec-12 19:30N 35°35' W 127°31'918.2
2017-Dec-12 19:00N 35°31' W 127°41'918.1
2017-Dec-12 18:30N 35°26' W 127°51'918.1
2017-Dec-12 18:00N 35°22' W 128°01'7439.4
2017-Dec-12 18:00N 35°18' W 127°54'1327.4 030 / 131028.0 5.4 12.811.717.2
2017-Dec-12 17:30N 35°18' W 128°10'918.1
2017-Dec-12 17:00N 35°13' W 128°20'918.0
2017-Dec-12 16:30N 35°09' W 128°30'917.7
2017-Dec-12 16:00N 35°05' W 128°39'917.7
2017-Dec-12 15:30N 35°01' W 128°49'917.8
2017-Dec-12 15:00N 34°56' W 128°58'3189.9
2017-Dec-12 15:00N 34°54' W 129°00'613.4 110 / 61026.410.8 15.613.517.2
2017-Dec-12 14:30N 34°52' W 129°08'917.4
2017-Dec-12 14:00N 34°48' W 129°17'917.3
2017-Dec-12 13:30N 34°44' W 129°26'917.5
2017-Dec-12 13:00N 34°40' W 129°36'917.8
2017-Dec-12 12:30N 34°36' W 129°45'918.0
2017-Dec-12 12:00N 34°31' W 129°55'917.4
2017-Dec-12 11:30N 34°27' W 130°04'917.5
2017-Dec-12 11:00N 34°30' W 129°54'3833.2 150 / 121027.110.8 16.714.8
2017-Dec-12 09:51N 34°13' W 130°35'717.8
2017-Dec-12 09:28N 34°10' W 130°43'4512.9
2017-Dec-12 06:00N 33°48' W 131°30'7023.3 180 / 171025.810.8 20.018.218.9
2017-Dec-12 03:00N 33°12' W 132°42'5618.6 120 / 111023.5 5.4 18.917.118.9
2017-Dec-12 00:00N 32°48' W 133°42'16218.0 040 / 101021.210.8 18.317.518.9
2017-Dec-11 15:00N 31°30' W 136°30'7117.8 190 / 81019.910.8 17.814.020.0
2017-Dec-11 11:00N 30°54' W 137°42'8817.6 170 / 121018.610.8 17.811.6
2017-Dec-11 06:00N 30°12' W 139°12'5317.5 360 / 71018.410.8 18.913.121.1
2017-Dec-11 03:00N 29°48' W 140°06'4812.0 340 / 121016.610.8 18.913.121.7
2017-Dec-10 23:00N 29°24' W 140°54'10921.8 310 / 221015.310.8 21.713.0
2017-Dec-10 18:00N 28°30' W 142°42'5317.8 300 / 221015.510.8 21.115.6
2017-Dec-10 15:00N 28°06' W 143°36'6115.2 270 / 241013.510.8 19.416.821.1
2017-Dec-10 11:00N 27°36' W 144°36'11523.0 270 / 221012.4 5.4 20.018.2
2017-Dec-10 06:00N 26°42' W 146°30'4924.6 230 / 251011.7 5.4 22.820.222.8
2017-Dec-10 04:00N 26°18' W 147°18'7418.5 230 / 221010.210.8 22.820.222.2
2017-Dec-10 00:00N 25°42' W 148°30'17119.0 230 / 211010.910.8 26.723.4
2017-Dec-09 15:00N 24°24' W 151°18'5819.2 210 / 61012.810.8 22.220.723.8
2017-Dec-09 12:00N 23°54' W 152°12'11318.8 230 / 131014.010.8 22.218.7
2017-Dec-09 06:00N 23°00' W 154°00'12120.2 1016.310.8 23.319.925.0
2017-Dec-09 00:00N 22°00' W 155°54'   310 / 101015.610.8 24.421.1
Track history (hours):
 
Tides and Currents Weather Stations Pressure Air Temp Water Temp Dewpoint Dewpoint Depression Visibility Wind Speed Wind Dir Waves Ship Positions

Horizon Enterprise

Owner: Marine Transport Management, Inc, Jacksonville, FL. More information available from US FCC via Universal Licensing System and Coast Guard Vessel Documentation Center.

Last reported at 2017-Dec-18 00:00 UTC. Time now 2017-Dec-18 03:26 UTC.
Position N 30°06' W 129°18'.

Type: Cargo ship. MMSI: 366758000.

Wind from 020 at 25 knots

Barometer 1019.8 mb
Air temperature 19.4 ° C
Visibility: greater than 10.8 NM
Dewpoint 15.7 ° C

Date/timePositionNaut miles runAvg speedWind from/ knotsBaromVisibWave heightAir tempDewpointWater temp
2017-Dec-18 00:00N 30°06' W 129°18'18020.0 020 / 251019.810.8 19.415.7
2017-Dec-17 15:00N 30°42' W 125°54'6421.5 010 / 301018.010.8 16.110.916.7
2017-Dec-17 12:00N 31°00' W 124°42'22517.3 010 / 401016.410.8 16.712.6
2017-Dec-16 23:00N 32°36' W 120°42'4134.8 350 / 411006.710.8 17.212.1
2017-Dec-16 21:49N 33°02' W 120°05'617.6
2017-Dec-16 21:28N 33°03' W 119°57'817.6
2017-Dec-16 21:00N 33°04' W 119°48'919.0
2017-Dec-16 20:30N 33°06' W 119°36'1019.5
2017-Dec-16 19:58N 33°07' W 119°24'1520.6
2017-Dec-16 19:16N 33°13' W 119°08'521.2
2017-Dec-16 19:00N 33°16' W 119°03'1021.0
2017-Dec-16 18:30N 33°22' W 118°53'3120.6
2017-Dec-16 16:59N 33°38' W 118°20'8 3.4
2017-Dec-16 14:38N 33°46' W 118°17'0 0.0
2017-Dec-16 14:30N 33°46' W 118°17'0 0.0
2017-Dec-16 13:47N 33°46' W 118°17'0 0.0
2017-Dec-16 13:29N 33°46' W 118°17'0 0.0
2017-Dec-16 11:05N 33°46' W 118°17'0 0.0
2017-Dec-16 10:47N 33°46' W 118°17'0 0.0
2017-Dec-16 07:23N 33°46' W 118°17'69 1.9
2017-Dec-14 18:30N 34°06' W 119°36'1021.0
2017-Dec-14 18:00N 34°10' W 119°48'11868.7
2017-Dec-14 18:00N 34°06' W 119°36'2143.0 290 / 21017.3 5.4 15.013.9
2017-Dec-14 17:30N 34°13' W 119°60'1020.8
2017-Dec-14 17:01N 34°16' W 120°12'1120.6
2017-Dec-14 16:29N 34°18' W 120°25'1020.9
2017-Dec-14 16:00N 34°21' W 120°36'2020.3
2017-Dec-14 15:00N 34°29' W 120°59'1121.2
2017-Dec-14 14:31N 34°37' W 121°07'1121.3
2017-Dec-14 14:01N 34°46' W 121°14'1121.4
2017-Dec-14 13:30N 34°56' W 121°20'1020.3
2017-Dec-14 13:00N 35°04' W 121°26'1019.5
2017-Dec-14 12:31N 35°12' W 121°33'1019.6
2017-Dec-14 12:01N 35°21' W 121°39'1120.9
2017-Dec-14 11:30N 35°31' W 121°44'1020.6
2017-Dec-14 11:01N 35°39' W 121°51'1121.1
2017-Dec-14 10:30N 35°48' W 121°58'1121.2
2017-Dec-14 10:00N 35°58' W 122°04'1121.3
2017-Dec-14 09:31N 36°07' W 122°11'1020.9
2017-Dec-14 09:01N 36°16' W 122°17'1020.9
2017-Dec-14 08:31N 36°25' W 122°22'1121.1
2017-Dec-14 08:01N 36°35' W 122°27'1121.4
2017-Dec-14 07:30N 36°45' W 122°32'1121.2
2017-Dec-14 07:01N 36°55' W 122°37'1121.2
2017-Dec-14 06:30N 37°05' W 122°41'1121.9
2017-Dec-14 06:01N 37°16' W 122°44'1121.9
2017-Dec-14 05:30N 37°27' W 122°44'1121.3
2017-Dec-14 05:00N 37°37' W 122°44'917.5
2017-Dec-14 04:31N 37°46' W 122°41'815.6
2017-Dec-14 04:00N 37°48' W 122°31'611.7
2017-Dec-14 03:30N 37°50' W 122°24'4 8.6
2017-Dec-14 03:01N 37°48' W 122°19'0 0.1
2017-Dec-14 02:30N 37°48' W 122°19'0 0.0
2017-Dec-14 02:01N 37°48' W 122°19'0 0.0
2017-Dec-14 01:30N 37°48' W 122°19'0 0.0
2017-Dec-14 00:58N 37°48' W 122°19'0 0.0
2017-Dec-14 00:28N 37°48' W 122°19'0 0.0
2017-Dec-13 23:58N 37°48' W 122°19'0 0.0
2017-Dec-13 23:28N 37°48' W 122°19'0 0.0
2017-Dec-13 22:58N 37°48' W 122°19'0 0.0
2017-Dec-13 22:28N 37°48' W 122°19'0 0.0
2017-Dec-13 21:58N 37°48' W 122°19'0 0.0
2017-Dec-13 21:28N 37°48' W 122°19'0 0.0
2017-Dec-13 20:58N 37°48' W 122°19'0 0.0
2017-Dec-13 20:28N 37°48' W 122°19'0 0.0
2017-Dec-13 19:58N 37°48' W 122°19'0 0.0
2017-Dec-13 19:28N 37°48' W 122°19'0 0.0
2017-Dec-13 18:58N 37°48' W 122°19'0 0.0
2017-Dec-13 18:28N 37°48' W 122°19'0 0.0
2017-Dec-13 17:58N 37°48' W 122°19'0 0.0
2017-Dec-13 17:28N 37°48' W 122°19'0 0.0
2017-Dec-13 16:58N 37°48' W 122°19'0 0.0
2017-Dec-13 16:28N 37°48' W 122°19'0 0.0
2017-Dec-13 15:58N 37°48' W 122°19'0 0.0
2017-Dec-13 15:28N 37°48' W 122°19'0 0.0
2017-Dec-13 14:58N 37°48' W 122°19'0 0.0
2017-Dec-13 14:30N 37°48' W 122°19'1 2.5
2017-Dec-13 14:00N 37°48' W 122°18'1 1.1
2017-Dec-13 13:30N 37°48' W 122°18'1 2.8
2017-Dec-13 13:00N 37°48' W 122°20'4 7.2
2017-Dec-13 12:30N 37°49' W 122°24'510.5
2017-Dec-13 12:00N 37°48' W 122°31'917.4
2017-Dec-13 11:30N 37°44' W 122°41'715.0
2017-Dec-13 11:01N 37°40' W 122°48'816.5
2017-Dec-13 10:30N 37°35' W 122°57'816.3
2017-Dec-13 10:01N 37°31' W 123°06'816.7
2017-Dec-13 09:30N 37°27' W 123°15'816.7
2017-Dec-13 09:01N 37°23' W 123°24'816.7
2017-Dec-13 08:31N 37°19' W 123°33'816.3
2017-Dec-13 08:01N 37°15' W 123°42'816.5
2017-Dec-13 07:30N 37°11' W 123°52'816.3
2017-Dec-13 07:00N 37°07' W 124°01'816.4
2017-Dec-13 06:31N 37°03' W 124°10'816.3
2017-Dec-13 06:01N 36°60' W 124°18'816.4
2017-Dec-13 05:31N 36°56' W 124°27'816.4
2017-Dec-13 05:01N 36°52' W 124°36'816.3
2017-Dec-13 04:30N 36°48' W 124°45'816.5
2017-Dec-13 04:00N 36°44' W 124°55'816.5
2017-Dec-13 03:30N 36°40' W 125°04'816.4
2017-Dec-13 03:01N 36°36' W 125°13'816.4
2017-Dec-13 02:30N 36°32' W 125°22'816.4
2017-Dec-13 02:00N 36°28' W 125°31'816.3
2017-Dec-13 01:30N 36°24' W 125°39'816.4
2017-Dec-13 01:00N 36°20' W 125°48'816.4
2017-Dec-13 00:30N 36°16' W 125°57'816.1
2017-Dec-13 00:00N 36°13' W 126°06'816.3
2017-Dec-12 23:30N 36°09' W 126°15'816.8
2017-Dec-12 23:00N 36°05' W 126°24'161071.3
2017-Dec-12 23:00N 36°12' W 126°06'2550.9 030 / 161024.110.8 18.913.1
2017-Dec-12 22:30N 36°01' W 126°33'917.1
2017-Dec-12 22:00N 35°57' W 126°42'917.4
2017-Dec-12 21:30N 35°52' W 126°52'918.3
2017-Dec-12 21:00N 35°48' W 127°02'918.3
2017-Dec-12 20:30N 35°44' W 127°12'917.9
2017-Dec-12 20:00N 35°39' W 127°21'918.2
2017-Dec-12 19:30N 35°35' W 127°31'918.2
2017-Dec-12 19:00N 35°31' W 127°41'918.1
2017-Dec-12 18:30N 35°26' W 127°51'918.1
2017-Dec-12 18:00N 35°22' W 128°01'7439.4
2017-Dec-12 18:00N 35°18' W 127°54'1327.4 030 / 131028.0 5.4 12.811.717.2
2017-Dec-12 17:30N 35°18' W 128°10'918.1
2017-Dec-12 17:00N 35°13' W 128°20'918.0
2017-Dec-12 16:30N 35°09' W 128°30'917.7
2017-Dec-12 16:00N 35°05' W 128°39'917.7
2017-Dec-12 15:30N 35°01' W 128°49'917.8
2017-Dec-12 15:00N 34°56' W 128°58'3189.9
2017-Dec-12 15:00N 34°54' W 129°00'613.4 110 / 61026.410.8 15.613.517.2
2017-Dec-12 14:30N 34°52' W 129°08'917.4
2017-Dec-12 14:00N 34°48' W 129°17'917.3
2017-Dec-12 13:30N 34°44' W 129°26'917.5
2017-Dec-12 13:00N 34°40' W 129°36'917.8
2017-Dec-12 12:30N 34°36' W 129°45'918.0
2017-Dec-12 12:00N 34°31' W 129°55'917.4
2017-Dec-12 11:30N 34°27' W 130°04'917.5
2017-Dec-12 11:00N 34°30' W 129°54'3833.2 150 / 121027.110.8 16.714.8
2017-Dec-12 09:51N 34°13' W 130°35'717.8
2017-Dec-12 09:28N 34°10' W 130°43'4512.9
2017-Dec-12 06:00N 33°48' W 131°30'7023.3 180 / 171025.810.8 20.018.218.9
2017-Dec-12 03:00N 33°12' W 132°42'5618.6 120 / 111023.5 5.4 18.917.118.9
2017-Dec-12 00:00N 32°48' W 133°42'16218.0 040 / 101021.210.8 18.317.518.9
2017-Dec-11 15:00N 31°30' W 136°30'7117.8 190 / 81019.910.8 17.814.020.0
2017-Dec-11 11:00N 30°54' W 137°42'8817.6 170 / 121018.610.8 17.811.6
2017-Dec-11 06:00N 30°12' W 139°12'5317.5 360 / 71018.410.8 18.913.121.1
2017-Dec-11 03:00N 29°48' W 140°06'4812.0 340 / 121016.610.8 18.913.121.7
2017-Dec-10 23:00N 29°24' W 140°54'10921.8 310 / 221015.310.8 21.713.0
2017-Dec-10 18:00N 28°30' W 142°42'5317.8 300 / 221015.510.8 21.115.6
2017-Dec-10 15:00N 28°06' W 143°36'6115.2 270 / 241013.510.8 19.416.821.1
2017-Dec-10 11:00N 27°36' W 144°36'11523.0 270 / 221012.4 5.4 20.018.2
2017-Dec-10 06:00N 26°42' W 146°30'4924.6 230 / 251011.7 5.4 22.820.222.8
2017-Dec-10 04:00N 26°18' W 147°18'7418.5 230 / 221010.210.8 22.820.222.2
2017-Dec-10 00:00N 25°42' W 148°30'17119.0 230 / 211010.910.8 26.723.4
2017-Dec-09 15:00N 24°24' W 151°18'5819.2 210 / 61012.810.8 22.220.723.8
2017-Dec-09 12:00N 23°54' W 152°12'11318.8 230 / 131014.010.8 22.218.7
2017-Dec-09 06:00N 23°00' W 154°00'12120.2 1016.310.8 23.319.925.0
2017-Dec-09 00:00N 22°00' W 155°54'   310 / 101015.610.8 24.421.1

Dump ship's entire track history